Time;durP1;ratioP1;P1;durP2;ratioP2;P2;SDS_P1;SDS_P2;PMS_P1;PMS_P2;Temp;Humidity;BMP_temperature;BMP_pressure;BME280_temperature;BME280_humidity;BME280_pressure;Samples;Min_cycle;Max_cycle;Signal;HPM_P1;HPM_P2
2022/01/10 00:00:27;;;;;;;39.70;15.63;;;0.60;99.90;;;;;;5006167;28;20238;-86
2022/01/10 00:02:57;;;;;;;39.97;15.57;;;0.60;99.90;;;;;;5025545;28;20207;-84
2022/01/10 00:05:24;;;;;;;46.33;16.00;;;0.60;99.90;;;;;;5001018;28;20627;-84
2022/01/10 00:07:51;;;;;;;39.30;14.97;;;0.60;99.90;;;;;;4997866;28;20278;-85
2022/01/10 00:10:20;;;;;;;40.30;14.80;;;0.50;99.90;;;;;;5005756;28;20851;-84
2022/01/10 00:12:47;;;;;;;39.67;14.73;;;0.50;99.90;;;;;;4999624;28;20210;-84
2022/01/10 00:15:16;;;;;;;38.27;13.80;;;0.50;99.90;;;;;;4998040;28;20225;-85
2022/01/10 00:17:43;;;;;;;42.67;14.07;;;0.40;99.90;;;;;;5010873;28;20278;-84
2022/01/10 00:20:13;;;;;;;43.80;13.97;;;0.30;99.90;;;;;;5011626;28;20210;-85
2022/01/10 00:22:45;;;;;;;40.13;13.83;;;0.30;99.90;;;;;;4995166;28;20214;-84
2022/01/10 00:25:14;;;;;;;47.20;16.00;;;0.30;99.90;;;;;;4994873;28;20226;-83
2022/01/10 00:27:42;;;;;;;50.20;16.03;;;1.40;99.90;;;;;;5022721;28;20223;-83
2022/01/10 00:30:26;;;;;;;35.47;13.33;;;0.30;99.90;;;;;;5015650;28;20302;-83
2022/01/10 00:32:53;;;;;;;37.17;13.97;;;0.30;99.90;;;;;;5017929;28;20209;-83
2022/01/10 00:35:21;;;;;;;36.53;14.50;;;0.30;99.90;;;;;;4997306;28;20219;-83
2022/01/10 00:37:49;;;;;;;32.73;12.77;;;0.20;99.90;;;;;;5015287;28;20512;-83
2022/01/10 00:40:18;;;;;;;45.93;16.23;;;0.20;99.90;;;;;;5016710;28;20305;-83
2022/01/10 00:42:53;;;;;;;56.07;15.77;;;0.30;99.90;;;;;;5015364;28;20210;-83
2022/01/10 00:45:23;;;;;;;37.67;14.00;;;0.30;99.90;;;;;;4998241;28;20270;-83
2022/01/10 00:47:50;;;;;;;39.80;14.43;;;0.30;99.90;;;;;;5013720;28;20319;-83
2022/01/10 00:50:18;;;;;;;42.17;14.63;;;0.20;99.90;;;;;;4998562;28;20248;-83
2022/01/10 00:52:45;;;;;;;40.27;14.33;;;0.20;99.90;;;;;;5011976;28;20206;-82
2022/01/10 00:55:13;;;;;;;41.67;14.17;;;0.20;99.90;;;;;;4994190;28;20213;-83
2022/01/10 00:57:40;;;;;;;42.30;14.93;;;0.20;99.90;;;;;;4995410;28;20236;-85
2022/01/10 01:00:12;;;;;;;43.00;14.47;;;0.20;99.90;;;;;;4996564;28;20678;-82
2022/01/10 01:02:39;;;;;;;40.70;14.20;;;0.20;99.90;;;;;;5014862;28;20317;-83
2022/01/10 01:05:09;;;;;;;43.67;14.73;;;0.10;99.90;;;;;;4998351;28;20217;-83
2022/01/10 01:07:37;;;;;;;47.43;16.27;;;0.10;99.90;;;;;;5013696;28;20511;-83
2022/01/10 01:10:23;;;;;;;45.13;15.27;;;0.10;99.90;;;;;;5015341;28;20210;-84
2022/01/10 01:12:54;;;;;;;48.97;15.90;;;0.10;99.90;;;;;;4997144;28;20218;-84
2022/01/10 01:15:25;;;;;;;40.90;15.13;;;0.10;99.90;;;;;;4997529;28;20273;-84
2022/01/10 01:17:59;;;;;;;46.07;15.53;;;0.20;99.90;;;;;;4998068;28;20219;-82
2022/01/10 01:20:42;;;;;;;41.30;14.67;;;0.20;99.90;;;;;;5017677;28;20249;-84
2022/01/10 01:25:57;;;;;;;46.33;15.17;;;0.20;99.90;;;;;;5012827;28;20232;-84
2022/01/10 01:28:25;;;;;;;46.00;14.93;;;0.20;99.90;;;;;;4997378;28;20575;-84
2022/01/10 01:30:53;;;;;;;38.97;13.93;;;0.10;99.90;;;;;;4997273;28;20292;-84
2022/01/10 01:33:20;;;;;;;48.00;14.93;;;0.20;99.90;;;;;;4998353;28;20229;-85
2022/01/10 01:35:48;;;;;;;49.50;14.73;;;0.20;99.90;;;;;;4999600;28;20226;-85
2022/01/10 01:38:15;;;;;;;40.13;14.60;;;0.20;99.90;;;;;;4996852;28;20306;-85
2022/01/10 01:40:48;;;;;;;41.07;14.93;;;0.20;99.90;;;;;;4996254;28;20261;-85
2022/01/10 01:43:15;;;;;;;44.43;14.93;;;0.20;99.90;;;;;;4998750;28;20211;-85
2022/01/10 01:45:45;;;;;;;44.13;15.33;;;0.20;99.90;;;;;;4995365;28;20211;-85
2022/01/10 01:48:14;;;;;;;39.07;14.57;;;0.20;99.90;;;;;;4997729;28;20234;-84
2022/01/10 01:50:42;;;;;;;49.83;15.27;;;0.10;99.90;;;;;;4997713;28;20262;-84
2022/01/10 01:53:12;;;;;;;41.63;14.77;;;0.10;99.90;;;;;;4996405;28;20313;-84
2022/01/10 01:55:40;;;;;;;39.93;14.07;;;0.00;99.90;;;;;;4994250;28;20763;-85
2022/01/10 01:58:07;;;;;;;40.13;14.33;;;0.00;99.90;;;;;;4997812;28;20606;-85
2022/01/10 02:00:34;;;;;;;43.07;15.07;;;0.00;99.90;;;;;;4995590;28;20737;-83
2022/01/10 02:03:02;;;;;;;43.67;14.53;;;-0.10;99.90;;;;;;4996664;28;20202;-84
2022/01/10 02:05:33;;;;;;;44.70;16.27;;;-0.20;99.90;;;;;;4997730;28;20335;-84
2022/01/10 02:08:00;;;;;;;43.67;15.13;;;0.20;99.90;;;;;;4995827;28;20384;-84
2022/01/10 02:10:28;;;;;;;43.60;15.70;;;-0.10;99.90;;;;;;4992280;28;20313;-84
2022/01/10 02:12:56;;;;;;;40.40;14.63;;;0.00;99.90;;;;;;4991288;28;20244;-84
2022/01/10 02:15:33;;;;;;;43.40;15.57;;;0.00;99.90;;;;;;4991445;28;20272;-84
2022/01/10 02:18:03;;;;;;;49.20;16.10;;;-0.10;99.90;;;;;;4993042;28;20229;-84
2022/01/10 02:20:33;;;;;;;41.97;15.10;;;-0.10;99.90;;;;;;5008416;28;20246;-84
2022/01/10 02:23:00;;;;;;;52.43;16.00;;;-0.10;99.90;;;;;;5013198;28;20211;-84
2022/01/10 02:25:50;;;;;;;51.70;15.43;;;-0.10;99.90;;;;;;5009876;28;20214;-84
2022/01/10 02:28:24;;;;;;;39.80;14.10;;;-0.10;99.90;;;;;;5005761;28;20234;-83
2022/01/10 02:30:56;;;;;;;43.63;15.27;;;-0.20;99.90;;;;;;5000387;28;20244;-83
2022/01/10 02:33:23;;;;;;;44.33;15.73;;;-0.20;99.90;;;;;;5002589;28;20214;-83
2022/01/10 02:35:59;;;;;;;37.50;14.97;;;-0.60;99.90;;;;;;4999616;28;20218;-85
2022/01/10 02:38:27;;;;;;;41.07;14.87;;;0.10;99.90;;;;;;4999728;28;20225;-84
2022/01/10 02:40:55;;;;;;;43.30;14.00;;;0.20;99.90;;;;;;4999528;28;20226;-83
2022/01/10 02:43:22;;;;;;;46.83;15.60;;;-0.10;99.90;;;;;;5010797;28;20636;-84
2022/01/10 02:45:50;;;;;;;48.80;16.40;;;-0.20;99.90;;;;;;4997102;28;20740;-83
2022/01/10 02:48:17;;;;;;;40.33;15.03;;;-0.10;99.90;;;;;;4998346;28;20639;-84
2022/01/10 02:50:44;;;;;;;44.43;15.60;;;-0.20;99.90;;;;;;4998065;28;20246;-84
2022/01/10 02:53:12;;;;;;;45.67;16.80;;;-0.10;99.90;;;;;;4999249;28;20268;-84
2022/01/10 02:55:40;;;;;;;47.07;16.50;;;-0.10;99.90;;;;;;5009792;28;20219;-84
2022/01/10 02:58:07;;;;;;;50.80;16.33;;;-0.20;99.90;;;;;;5002522;28;20219;-84
2022/01/10 03:00:35;;;;;;;51.93;16.67;;;-0.20;99.90;;;;;;5004697;28;20265;-84
2022/01/10 03:03:06;;;;;;;40.33;15.80;;;-0.20;99.90;;;;;;5000741;28;20222;-84
2022/01/10 03:05:34;;;;;;;50.13;15.50;;;-0.20;99.90;;;;;;4994839;28;20214;-84
2022/01/10 03:08:02;;;;;;;57.90;17.13;;;-0.20;99.90;;;;;;5003753;28;20198;-84
2022/01/10 03:10:31;;;;;;;49.50;16.67;;;-0.20;99.90;;;;;;5003485;28;20230;-84
2022/01/10 03:12:59;;;;;;;46.37;16.07;;;-0.30;99.90;;;;;;5002073;28;20226;-83
2022/01/10 03:15:26;;;;;;;47.17;15.97;;;-0.20;99.90;;;;;;5011466;28;20194;-83
2022/01/10 03:18:07;;;;;;;45.87;16.90;;;-0.20;99.90;;;;;;5003455;28;20305;-84
2022/01/10 03:20:34;;;;;;;44.27;15.67;;;-0.20;99.90;;;;;;5025957;28;20234;-84
2022/01/10 03:23:01;;;;;;;45.90;15.63;;;0.40;99.90;;;;;;5017298;28;20219;-83
2022/01/10 03:25:28;;;;;;;43.70;16.20;;;-0.10;99.90;;;;;;5013120;28;20226;-85
2022/01/10 03:28:01;;;;;;;40.50;16.33;;;-0.10;99.90;;;;;;5008386;28;20230;-84
2022/01/10 03:30:28;;;;;;;48.23;16.03;;;-0.10;99.90;;;;;;5008635;28;20668;-84
2022/01/10 03:32:57;;;;;;;43.83;14.77;;;0.00;99.90;;;;;;5019126;28;20202;-84
2022/01/10 03:35:34;;;;;;;45.97;15.47;;;-0.10;99.90;;;;;;5004712;28;20214;-84
2022/01/10 03:38:01;;;;;;;39.40;15.87;;;-0.10;99.90;;;;;;5004613;28;20238;-84
2022/01/10 03:40:33;;;;;;;42.23;15.90;;;-0.10;99.90;;;;;;5002377;28;20257;-85
2022/01/10 03:43:04;;;;;;;48.63;17.00;;;-0.10;99.90;;;;;;5004026;28;20265;-84
2022/01/10 03:45:32;;;;;;;52.77;17.03;;;-0.10;99.90;;;;;;5001502;28;20218;-84
2022/01/10 03:47:59;;;;;;;51.37;15.87;;;0.00;99.90;;;;;;5001385;28;20737;-83
2022/01/10 03:50:28;;;;;;;48.57;16.40;;;0.00;99.90;;;;;;5002133;28;20249;-84
2022/01/10 03:52:59;;;;;;;50.47;15.00;;;0.00;99.90;;;;;;5005441;28;20289;-83
2022/01/10 03:55:26;;;;;;;42.57;15.87;;;-0.10;99.90;;;;;;5018588;28;20435;-84
2022/01/10 03:57:55;;;;;;;46.27;15.23;;;-0.10;99.90;;;;;;5017866;28;20703;-84
2022/01/10 04:00:23;;;;;;;49.30;16.20;;;-0.10;99.90;;;;;;5019877;28;20207;-84
2022/01/10 04:02:55;;;;;;;41.80;16.00;;;-0.10;99.90;;;;;;5025484;28;20217;-84
2022/01/10 04:05:27;;;;;;;48.30;16.23;;;0.30;99.90;;;;;;5026436;28;20217;-84
2022/01/10 04:07:54;;;;;;;55.50;17.17;;;-0.10;99.90;;;;;;5011859;28;20252;-85
2022/01/10 04:10:22;;;;;;;52.03;17.23;;;0.00;99.90;;;;;;5011642;28;20218;-85
2022/01/10 04:12:49;;;;;;;43.23;15.17;;;0.00;99.90;;;;;;5012740;28;20249;-83
2022/01/10 04:15:17;;;;;;;49.03;17.20;;;0.00;99.90;;;;;;5009907;28;20227;-84
2022/01/10 04:17:45;;;;;;;42.80;15.37;;;0.10;99.90;;;;;;5024796;28;20222;-84
2022/01/10 04:20:13;;;;;;;51.03;16.17;;;0.10;99.90;;;;;;5004286;28;20207;-83
2022/01/10 04:22:40;;;;;;;46.30;16.53;;;0.10;99.90;;;;;;5006957;28;20215;-83
2022/01/10 04:25:08;;;;;;;53.33;17.60;;;0.10;99.90;;;;;;5009704;28;20222;-84
2022/01/10 04:27:35;;;;;;;42.10;16.53;;;0.00;99.90;;;;;;5007326;28;20209;-84
2022/01/10 04:30:02;;;;;;;49.77;16.57;;;0.00;99.90;;;;;;5012017;28;20214;-84
2022/01/10 04:32:32;;;;;;;47.43;16.27;;;0.00;99.90;;;;;;5010610;28;20254;-84
2022/01/10 04:35:01;;;;;;;44.80;16.07;;;0.00;99.90;;;;;;5011838;28;20297;-83
2022/01/10 04:37:30;;;;;;;44.87;16.17;;;0.60;99.90;;;;;;5008828;28;20575;-83
2022/01/10 04:39:57;;;;;;;41.97;15.13;;;0.10;99.90;;;;;;5007217;28;20255;-83
2022/01/10 04:42:24;;;;;;;43.83;16.57;;;0.20;99.90;;;;;;5009483;28;20215;-84
2022/01/10 04:44:51;;;;;;;43.60;15.70;;;0.20;99.90;;;;;;5012239;28;20234;-84
2022/01/10 04:47:20;;;;;;;48.33;17.37;;;0.20;99.90;;;;;;5016989;28;20199;-84
2022/01/10 04:50:06;;;;;;;49.83;17.73;;;0.20;99.90;;;;;;5010918;28;20206;-84
2022/01/10 04:52:35;;;;;;;48.53;15.77;;;0.60;99.90;;;;;;5008732;28;20225;-83
2022/01/10 04:55:03;;;;;;;42.00;15.87;;;0.20;99.90;;;;;;5009841;28;20225;-83
2022/01/10 04:57:31;;;;;;;43.33;15.50;;;0.20;99.90;;;;;;5008400;28;20214;-84
2022/01/10 04:59:58;;;;;;;42.00;14.97;;;0.10;99.90;;;;;;5010243;28;20273;-83
2022/01/10 05:02:25;;;;;;;46.40;15.43;;;0.10;99.90;;;;;;5009478;28;20242;-83
2022/01/10 05:04:52;;;;;;;43.10;14.73;;;0.10;99.90;;;;;;5009148;28;20858;-84
2022/01/10 05:07:19;;;;;;;44.40;15.83;;;0.10;99.90;;;;;;5008743;28;20211;-84
2022/01/10 05:09:51;;;;;;;47.47;15.33;;;0.10;99.90;;;;;;5008350;28;20222;-83
2022/01/10 05:12:20;;;;;;;47.63;16.23;;;0.00;99.90;;;;;;5004839;28;20628;-83
2022/01/10 05:14:47;;;;;;;47.43;15.90;;;0.00;99.90;;;;;;5003015;28;20983;-84
2022/01/10 05:17:15;;;;;;;41.37;14.23;;;0.00;99.90;;;;;;4998185;28;20288;-83
2022/01/10 05:19:42;;;;;;;38.50;14.87;;;0.00;99.90;;;;;;4998503;28;20222;-83
2022/01/10 05:22:09;;;;;;;52.67;14.80;;;-0.10;99.90;;;;;;5016561;28;20225;-83
2022/01/10 05:24:36;;;;;;;47.77;16.27;;;-0.10;99.90;;;;;;4997358;28;20219;-83
2022/01/10 05:27:05;;;;;;;44.57;15.70;;;-0.20;99.90;;;;;;4997478;28;20222;-83
2022/01/10 05:29:32;;;;;;;40.90;15.17;;;-0.20;99.90;;;;;;5011741;28;20202;-84
2022/01/10 05:31:59;;;;;;;48.23;16.10;;;-0.20;99.90;;;;;;4993306;28;20293;-84
2022/01/10 05:34:52;;;;;;;48.27;17.17;;;-0.20;99.90;;;;;;4982854;28;20218;-84
2022/01/10 05:37:20;;;;;;;50.60;16.13;;;-0.20;99.90;;;;;;4996380;28;20214;-83
2022/01/10 05:39:47;;;;;;;45.70;16.70;;;-0.30;99.90;;;;;;4996525;28;20238;-83
2022/01/10 05:42:21;;;;;;;37.70;14.60;;;-0.30;99.90;;;;;;4997941;28;20705;-85
2022/01/10 05:44:49;;;;;;;47.80;15.77;;;-0.40;99.90;;;;;;5013171;28;20217;-83
2022/01/10 05:47:16;;;;;;;43.50;16.47;;;-0.40;99.90;;;;;;4995783;28;20234;-83
2022/01/10 05:49:47;;;;;;;48.30;15.47;;;-0.10;99.90;;;;;;4995873;28;20203;-84
2022/01/10 05:52:17;;;;;;;42.53;14.83;;;-0.40;99.90;;;;;;4996809;28;20251;-84
2022/01/10 05:54:49;;;;;;;41.80;14.87;;;-0.40;99.90;;;;;;5008683;28;20213;-83
2022/01/10 05:57:16;;;;;;;35.10;13.97;;;-0.40;99.90;;;;;;5010069;28;20238;-83
2022/01/10 05:59:50;;;;;;;39.83;14.07;;;-0.40;99.90;;;;;;4994153;28;20250;-83
2022/01/10 06:02:17;;;;;;;38.23;14.53;;;-0.40;99.90;;;;;;4993599;28;20289;-83
2022/01/10 06:04:44;;;;;;;39.50;15.23;;;-0.40;99.90;;;;;;5009083;28;20270;-83
2022/01/10 06:07:29;;;;;;;45.07;15.13;;;-0.30;99.90;;;;;;5009426;28;20216;-83
2022/01/10 06:09:58;;;;;;;37.40;15.20;;;-0.30;99.90;;;;;;5001461;28;20282;-83
2022/01/10 06:12:25;;;;;;;44.60;15.63;;;-0.20;99.90;;;;;;5012753;28;20257;-83
2022/01/10 06:14:53;;;;;;;38.33;14.07;;;-0.20;99.90;;;;;;5026364;28;20188;-83
2022/01/10 06:17:20;;;;;;;32.53;14.27;;;-0.20;99.90;;;;;;4998918;28;20692;-82
2022/01/10 06:19:47;;;;;;;43.90;14.57;;;-0.20;99.90;;;;;;4998998;28;20276;-83
2022/01/10 06:22:14;;;;;;;41.53;14.00;;;-0.20;99.90;;;;;;5010523;28;20240;-82
2022/01/10 06:24:42;;;;;;;37.53;15.93;;;-0.20;99.90;;;;;;4993441;28;20749;-83
2022/01/10 06:27:09;;;;;;;38.30;15.50;;;-0.20;99.90;;;;;;4994114;28;20680;-83
2022/01/10 06:29:39;;;;;;;43.23;15.50;;;-0.30;99.90;;;;;;4993186;28;20311;-84
2022/01/10 06:32:08;;;;;;;42.47;15.83;;;-0.30;99.90;;;;;;4987721;28;20832;-83
2022/01/10 06:34:36;;;;;;;47.53;17.17;;;-0.30;99.90;;;;;;4996271;28;20218;-83
2022/01/10 06:37:04;;;;;;;39.53;14.00;;;-0.40;99.90;;;;;;4995509;28;20211;-84
2022/01/10 06:39:36;;;;;;;50.60;16.80;;;-0.50;99.90;;;;;;4993957;28;20314;-84
2022/01/10 06:42:04;;;;;;;40.83;16.43;;;-0.50;99.90;;;;;;5009612;28;20730;-84
2022/01/10 06:44:31;;;;;;;50.73;18.07;;;-0.40;99.90;;;;;;4991678;28;20237;-84
2022/01/10 06:46:59;;;;;;;47.13;16.53;;;-0.40;99.90;;;;;;4994817;28;20297;-84
2022/01/10 06:49:28;;;;;;;43.67;16.33;;;-0.40;99.90;;;;;;5009864;28;20249;-84
2022/01/10 06:51:55;;;;;;;44.13;16.03;;;-0.30;99.90;;;;;;5020114;28;20223;-84
2022/01/10 06:54:22;;;;;;;39.97;15.83;;;-0.20;99.90;;;;;;5008768;28;20220;-84
2022/01/10 06:56:49;;;;;;;46.63;15.63;;;-0.20;99.90;;;;;;5000568;28;20210;-84
2022/01/10 06:59:16;;;;;;;40.77;14.40;;;-0.20;99.90;;;;;;4995012;28;20775;-84
2022/01/10 07:01:47;;;;;;;39.40;16.23;;;-0.20;99.90;;;;;;4994988;28;20337;-84
2022/01/10 07:04:14;;;;;;;36.23;16.13;;;-0.20;99.90;;;;;;4992910;28;20206;-84
2022/01/10 07:06:43;;;;;;;44.70;16.70;;;-0.30;99.90;;;;;;4998776;28;20211;-84
2022/01/10 07:09:18;;;;;;;43.53;15.90;;;-0.30;99.90;;;;;;4998031;28;20228;-84
2022/01/10 07:11:57;;;;;;;50.87;21.07;;;-0.30;99.90;;;;;;4995015;28;20551;-84
2022/01/10 07:14:25;;;;;;;48.43;19.13;;;-0.30;99.90;;;;;;4994526;28;20265;-84
2022/01/10 07:17:00;;;;;;;54.30;20.70;;;-0.20;99.90;;;;;;4994793;28;20712;-83
2022/01/10 07:19:27;;;;;;;60.70;20.43;;;0.00;99.90;;;;;;4998002;28;20773;-84
2022/01/10 07:21:55;;;;;;;59.83;18.87;;;-0.10;99.90;;;;;;5005090;28;20750;-84
2022/01/10 07:24:23;;;;;;;53.67;18.13;;;-0.10;99.90;;;;;;5001038;28;20274;-84
2022/01/10 07:26:50;;;;;;;46.70;18.83;;;0.00;99.90;;;;;;5001100;28;20245;-83
2022/01/10 07:29:17;;;;;;;50.37;18.43;;;0.10;99.90;;;;;;5003425;28;20206;-83
2022/01/10 07:31:46;;;;;;;69.90;27.13;;;0.10;99.90;;;;;;5005715;28;20238;-84
2022/01/10 07:34:15;;;;;;;59.87;21.07;;;0.00;99.90;;;;;;5010505;28;20225;-84
2022/01/10 07:36:43;;;;;;;49.43;18.67;;;0.00;99.90;;;;;;5010669;28;20234;-85
2022/01/10 07:39:12;;;;;;;43.87;16.90;;;0.00;99.90;;;;;;5000314;28;20222;-86
2022/01/10 07:41:39;;;;;;;46.33;18.20;;;0.00;99.90;;;;;;4996515;28;20238;-87
2022/01/10 07:44:12;;;;;;;54.03;18.47;;;0.00;99.90;;;;;;5004789;28;20264;-87
2022/01/10 07:46:40;;;;;;;54.20;19.30;;;0.00;99.90;;;;;;4996668;28;20558;-87
2022/01/10 07:49:06;;;;;;;51.03;18.30;;;0.10;99.90;;;;;;4996522;28;20211;-86
2022/01/10 07:51:33;;;;;;;51.23;19.57;;;0.20;99.90;;;;;;4997567;28;20234;-87
2022/01/10 07:54:00;;;;;;;53.77;19.80;;;0.30;99.90;;;;;;4995964;28;20214;-86
2022/01/10 07:56:29;;;;;;;55.30;20.67;;;0.30;99.90;;;;;;4998198;28;20752;-88
2022/01/10 07:58:56;;;;;;;59.03;19.67;;;1.10;99.90;;;;;;5014857;28;20269;-87
2022/01/10 08:01:23;;;;;;;44.87;17.97;;;0.40;99.90;;;;;;5003042;28;20262;-88
2022/01/10 08:03:52;;;;;;;43.43;17.80;;;0.50;99.90;;;;;;5001558;28;20228;-87
2022/01/10 08:06:20;;;;;;;53.00;17.60;;;0.60;99.90;;;;;;4998311;28;20660;-87
2022/01/10 08:08:47;;;;;;;45.70;18.80;;;0.60;99.90;;;;;;4995325;28;20210;-87
2022/01/10 08:11:14;;;;;;;47.73;16.13;;;0.60;99.90;;;;;;4997793;28;20234;-87
2022/01/10 08:13:42;;;;;;;45.47;16.07;;;0.60;99.90;;;;;;5016522;28;20211;-86
2022/01/10 08:16:09;;;;;;;42.67;15.73;;;0.60;99.90;;;;;;5010686;28;20258;-87
2022/01/10 08:18:37;;;;;;;40.23;16.63;;;0.60;99.90;;;;;;5006710;28;20237;-87
2022/01/10 08:21:06;;;;;;;48.60;17.20;;;0.70;99.90;;;;;;5011130;28;20260;-87
2022/01/10 08:23:33;;;;;;;44.70;16.53;;;0.80;99.90;;;;;;5030640;28;20207;-87
2022/01/10 08:26:03;;;;;;;46.47;17.13;;;0.90;99.90;;;;;;5029016;28;20217;-88
2022/01/10 08:28:30;;;;;;;50.37;17.50;;;1.10;99.90;;;;;;5029740;28;20231;-88
2022/01/10 08:30:59;;;;;;;43.90;17.00;;;1.20;99.90;;;;;;5007815;28;20333;-87
2022/01/10 08:33:25;;;;;;;44.83;17.50;;;1.30;99.90;;;;;;5012166;28;20285;-87
2022/01/10 08:35:52;;;;;;;47.23;16.27;;;1.40;99.90;;;;;;5013073;28;20199;-87
2022/01/10 08:38:20;;;;;;;44.73;15.57;;;1.50;99.90;;;;;;5011596;28;20305;-88
2022/01/10 08:40:47;;;;;;;45.00;16.10;;;1.50;99.90;;;;;;5009981;28;20309;-87
2022/01/10 08:43:16;;;;;;;45.90;16.60;;;1.60;99.90;;;;;;5009772;28;20317;-86
2022/01/10 08:45:43;;;;;;;40.87;15.30;;;1.80;99.90;;;;;;5000437;28;20289;-86
2022/01/10 08:48:11;;;;;;;44.37;15.37;;;1.90;99.90;;;;;;4991205;28;20266;-86
2022/01/10 08:50:46;;;;;;;41.53;15.77;;;2.10;99.90;;;;;;5027439;28;20234;-86
2022/01/10 08:53:13;;;;;;;37.07;14.87;;;2.20;99.90;;;;;;5022496;28;20209;-85
2022/01/10 08:55:40;;;;;;;34.47;15.13;;;2.30;99.90;;;;;;4996254;28;20526;-85
2022/01/10 08:58:10;;;;;;;48.33;17.97;;;2.30;99.90;;;;;;4998425;28;20337;-85
2022/01/10 09:00:37;;;;;;;49.90;17.00;;;2.40;99.90;;;;;;4997942;28;20230;-86
2022/01/10 09:03:05;;;;;;;40.07;16.47;;;2.50;99.90;;;;;;5000538;28;20222;-85
2022/01/10 09:05:33;;;;;;;36.33;15.67;;;2.60;99.90;;;;;;5002485;28;20585;-84
2022/01/10 09:08:03;;;;;;;40.17;15.27;;;2.70;99.90;;;;;;5005942;28;20242;-86
2022/01/10 09:10:30;;;;;;;49.87;19.00;;;2.70;99.90;;;;;;5007805;28;20207;-86
2022/01/10 09:12:57;;;;;;;53.23;19.87;;;2.80;99.90;;;;;;5010461;28;20206;-86
2022/01/10 09:15:24;;;;;;;51.53;19.83;;;2.80;99.90;;;;;;4999914;28;20703;-86
2022/01/10 09:17:51;;;;;;;44.37;19.80;;;2.90;99.90;;;;;;5005996;28;20213;-85
2022/01/10 09:20:18;;;;;;;53.23;22.37;;;3.00;99.90;;;;;;5027200;28;20678;-87
2022/01/10 09:22:47;;;;;;;45.30;19.70;;;3.30;99.90;;;;;;5017261;28;20219;-85
2022/01/10 09:25:14;;;;;;;41.33;20.40;;;3.20;99.90;;;;;;4995449;28;20264;-86
2022/01/10 09:27:42;;;;;;;39.13;15.73;;;3.30;99.90;;;;;;5011223;28;20241;-85
2022/01/10 09:30:10;;;;;;;44.47;14.83;;;3.40;99.90;;;;;;4988759;28;20207;-85
2022/01/10 09:32:37;;;;;;;37.77;14.80;;;3.40;99.90;;;;;;4990475;28;20210;-85
2022/01/10 09:35:05;;;;;;;43.10;16.03;;;3.50;99.90;;;;;;4993845;28;20214;-85
2022/01/10 09:37:32;;;;;;;37.50;15.47;;;3.60;99.90;;;;;;5010754;28;20206;-85
2022/01/10 09:40:00;;;;;;;41.77;17.27;;;3.70;99.90;;;;;;5009564;28;20702;-86
2022/01/10 09:42:27;;;;;;;47.93;16.77;;;3.80;99.90;;;;;;5010263;28;20782;-85
2022/01/10 09:44:54;;;;;;;43.57;15.90;;;3.90;99.90;;;;;;5003519;28;20211;-85
2022/01/10 09:47:22;;;;;;;36.73;15.17;;;4.00;99.90;;;;;;5001885;28;20219;-85
2022/01/10 09:49:48;;;;;;;33.50;15.80;;;4.20;99.90;;;;;;5007197;28;20213;-86
2022/01/10 09:52:16;;;;;;;45.70;16.63;;;4.30;99.90;;;;;;5024744;28;20223;-86
2022/01/10 09:54:43;;;;;;;42.17;16.93;;;4.30;99.90;;;;;;5001854;28;20210;-86
2022/01/10 09:57:11;;;;;;;44.07;16.50;;;4.50;99.90;;;;;;5032553;28;20212;-85
2022/01/10 09:59:40;;;;;;;39.50;15.87;;;4.60;99.90;;;;;;5021543;28;20234;-86
2022/01/10 10:02:08;;;;;;;37.23;15.50;;;4.70;99.90;;;;;;4994548;28;20241;-86
2022/01/10 10:04:37;;;;;;;46.03;16.00;;;4.80;99.90;;;;;;4994672;28;20253;-86
2022/01/10 10:07:05;;;;;;;39.27;15.67;;;4.90;99.90;;;;;;4994148;28;20210;-86
2022/01/10 10:09:32;;;;;;;42.90;16.70;;;5.00;99.90;;;;;;5011570;28;20217;-86
2022/01/10 10:11:59;;;;;;;46.13;17.93;;;5.00;99.90;;;;;;4994535;28;20240;-86
2022/01/10 10:14:27;;;;;;;38.13;17.20;;;5.10;99.90;;;;;;4992751;28;20842;-86
2022/01/10 10:16:57;;;;;;;38.57;17.10;;;5.10;99.90;;;;;;4992321;28;20289;-86
2022/01/10 10:19:26;;;;;;;36.07;14.60;;;5.20;99.90;;;;;;4991606;28;20310;-86
2022/01/10 10:21:56;;;;;;;36.30;15.30;;;5.20;99.90;;;;;;4993324;28;20237;-86
2022/01/10 10:24:24;;;;;;;31.07;14.90;;;5.30;99.90;;;;;;4992492;28;20300;-85
2022/01/10 10:26:52;;;;;;;34.73;15.53;;;6.00;99.90;;;;;;4997207;28;20219;-85
2022/01/10 10:29:19;;;;;;;35.27;14.67;;;5.50;99.90;;;;;;4997569;28;20608;-85
2022/01/10 10:31:50;;;;;;;34.30;15.77;;;5.60;99.90;;;;;;4996909;28;20286;-86
2022/01/10 10:34:20;;;;;;;45.10;15.50;;;5.70;99.90;;;;;;4997127;28;21163;-86
2022/01/10 10:36:59;;;;;;;38.27;15.17;;;5.80;99.90;;;;;;4994607;28;20811;-85
2022/01/10 10:39:26;;;;;;;40.97;16.17;;;5.90;99.90;;;;;;4991980;28;20780;-85
2022/01/10 10:41:55;;;;;;;44.20;15.70;;;6.20;99.90;;;;;;4995430;28;20222;-87
2022/01/10 10:44:23;;;;;;;37.17;14.90;;;6.00;99.90;;;;;;5019496;28;20229;-87
2022/01/10 10:46:52;;;;;;;41.70;15.97;;;6.60;99.90;;;;;;5014048;28;20210;-87
2022/01/10 10:49:21;;;;;;;42.00;15.60;;;6.20;99.90;;;;;;5031921;28;20206;-88
2022/01/10 10:51:51;;;;;;;39.50;16.03;;;6.30;99.90;;;;;;5030188;28;20447;-87
2022/01/10 10:54:19;;;;;;;37.03;16.70;;;6.40;99.90;;;;;;5027037;28;20225;-87
2022/01/10 10:56:47;;;;;;;33.70;14.03;;;6.50;99.90;;;;;;5017054;28;20207;-87
2022/01/10 10:59:14;;;;;;;38.83;15.90;;;6.70;99.90;;;;;;5016251;28;20188;-87
2022/01/10 11:01:43;;;;;;;38.03;15.73;;;6.90;99.90;;;;;;5033532;28;20230;-86
2022/01/10 11:04:12;;;;;;;;;;;7.10;99.90;;;;;;5016091;28;20103;-87
2022/01/10 11:06:39;;;;;;;;;;;7.30;99.90;;;;;;5016115;28;19935;-86
2022/01/10 11:09:09;;;;;;;;;;;7.40;99.90;;;;;;5015191;28;19972;-86
2022/01/10 11:11:36;;;;;;;;;;;7.50;99.90;;;;;;5027771;28;19936;-86
2022/01/10 11:14:03;;;;;;;;;;;7.70;99.90;;;;;;5034802;28;19968;-86
2022/01/10 11:16:32;;;;;;;;;;;7.70;99.90;;;;;;5012339;28;20340;-86
2022/01/10 11:18:59;;;;;;;;;;;7.80;99.90;;;;;;5012565;28;19921;-86
2022/01/10 11:21:29;;;;;;;;;;;7.90;99.90;;;;;;5004291;28;19932;-86
2022/01/10 11:23:56;;;;;;;;;;;8.00;99.90;;;;;;5022752;28;20012;-86
2022/01/10 11:26:23;;;;;;;;;;;8.10;99.90;;;;;;5020376;28;19922;-85
2022/01/10 11:28:50;;;;;;;;;;;8.20;99.90;;;;;;5009078;28;19926;-85
2022/01/10 11:31:22;;;;;;;;;;;8.40;99.90;;;;;;5010000;28;19935;-85
2022/01/10 11:33:49;;;;;;;;;;;8.40;99.90;;;;;;5033936;28;19932;-86
2022/01/10 11:36:18;;;;;;;;;;;8.50;99.90;;;;;;5020745;28;19913;-86
2022/01/10 11:38:49;;;;;;;;;;;8.60;99.90;;;;;;5012487;28;19940;-85
2022/01/10 11:41:16;;;;;;;;;;;8.60;99.90;;;;;;4997438;28;20425;-85
2022/01/10 11:43:49;;;;;;;;;;;8.70;99.90;;;;;;5003827;28;19925;-85
2022/01/10 11:46:17;;;;;;;;;;;8.70;99.90;;;;;;5000318;28;19976;-85
2022/01/10 11:48:46;;;;;;;;;;;9.70;99.90;;;;;;5014815;28;19925;-85
2022/01/10 11:51:14;;;;;;;;;;;8.80;99.90;;;;;;5015445;28;19928;-85
2022/01/10 11:53:49;;;;;;;;;;;9.00;99.90;;;;;;4998264;28;19992;-85
2022/01/10 11:56:21;;;;;;;;;;;9.00;99.90;;;;;;4998332;28;19921;-86
2022/01/10 11:59:03;;;;;;;;;;;9.00;99.90;;;;;;4996613;28;19993;-86
2022/01/10 12:01:32;;;;;;;;;;;9.00;99.90;;;;;;4995804;28;20302;-86
2022/01/10 12:04:00;;;;;;;;;;;9.10;99.90;;;;;;5007803;28;19937;-86
2022/01/10 12:06:27;;;;;;;;;;;9.20;99.90;;;;;;4996068;28;20066;-86
2022/01/10 12:08:55;;;;;;;;;;;9.30;99.90;;;;;;4999842;28;19929;-86
2022/01/10 12:11:23;;;;;;;;;;;9.40;99.90;;;;;;4998602;28;19944;-85
2022/01/10 12:13:51;;;;;;;;;;;9.50;99.90;;;;;;5003948;28;20271;-86
2022/01/10 12:16:18;;;;;;;;;;;9.60;99.90;;;;;;5029193;28;19996;-86
2022/01/10 12:18:45;;;;;;;;;;;9.70;99.90;;;;;;5017631;28;20243;-86
2022/01/10 12:21:13;;;;;;;;;;;10.40;99.90;;;;;;4999052;28;19926;-85
2022/01/10 12:23:40;;;;;;;;;;;9.80;99.90;;;;;;5020499;28;19967;-85
2022/01/10 12:26:08;;;;;;;;;;;9.90;99.90;;;;;;5010024;28;19936;-86
2022/01/10 12:28:35;;;;;;;;;;;10.00;99.90;;;;;;5004916;28;20005;-85
2022/01/10 12:31:02;;;;;;;;;;;10.00;99.90;;;;;;5010565;28;19949;-85
2022/01/10 12:33:29;;;;;;;;;;;10.10;99.90;;;;;;5010871;28;19984;-84
2022/01/10 12:35:56;;;;;;;;;;;10.20;99.90;;;;;;4995266;28;19921;-84
2022/01/10 12:38:24;;;;;;;;;;;10.10;99.90;;;;;;4997246;28;19925;-84
2022/01/10 12:40:51;;;;;;;;;;;10.20;99.90;;;;;;4994047;28;19936;-85
2022/01/10 12:43:19;;;;;;;;;;;10.20;99.90;;;;;;4994208;28;19952;-85
2022/01/10 12:45:47;;;;;;;;;;;10.20;99.90;;;;;;5011081;28;19976;-85
2022/01/10 12:48:14;;;;;;;;;;;10.20;99.90;;;;;;4996115;28;19960;-86
2022/01/10 12:50:42;;;;;;;;;;;10.30;99.90;;;;;;5009401;28;19922;-85
2022/01/10 12:53:09;;;;;;;;;;;10.30;99.90;;;;;;4995559;28;19921;-86
2022/01/10 12:55:36;;;;;;;;;;;10.30;99.90;;;;;;4995066;28;20022;-85
2022/01/10 12:58:04;;;;;;;;;;;10.20;99.90;;;;;;5012271;28;19961;-86